ADDS TAF Board (Experimental) INFO

IDs: Format: Expanded Condensed

Updated at: 0745 UTC 22 Dec 2014

KMIA - Miami Intl, FL, US

Issued at 0536 UTC 22 Dec 2014
Time0653Z22/08Z22/09Z22/10Z22/11Z22/12Z22/13Z22/14Z22/15Z22/16Z22/17Z22/18Z22/19Z22/20Z
TypeOBSPRVLPRVLPRVLPRVLPRVLPRVLPRVLPRVLPRVLPRVLPRVLPRVLPRVL
VIS10>6>6>6>6>6>6>6>6>6>6>6>6>6
CIG--25025025025025025050505050505050
CoverSCTBKNBKNBKNBKNBKNBKNBKNBKNBKNBKNBKNBKNBKN
FltCat--VFRVFRVFRVFRVFRVFRVFRVFRVFRVFRVFRVFRVFR
WX----------------------------
WDirVRB130130130130130130170170170170170170170
WSpd033333310101010101010
WGst----------------------------
R08/26
XWndVRB-2-2-2-2-2-2-10-10-10-10-10-10-10
HWndVRB2222221111111
R09/27
XWndVRB-2-2-2-2-2-2-10-10-10-10-10-10-10
HWndVRB2222221111111
R12/30
XWndVRB-1-1-1-1-1-1-8-8-8-8-8-8-8
HWndVRB3333336666666
Raw TAF
KMIA 220536Z 2206/2306 13003KT P6SM FEW023 SCT120 BKN250
  FM221400 17010KT P6SM BKN050 BKN250
  FM230000 16006KT P6SM SCT050 BKN250


Raw METAR
KMIA 220653Z 00000KT 10SM SCT140 SCT250 21/18 A3004 RMK AO2 SLP173 T02110183

TAF Board Legend

Hazard VFR MVFR IFR LIFR
Visibility (sm) >5 3≤X≤5 1≤X<3 <1
Ceiling (100 ft) >30 10≤X≤30 5≤X<10 <5
Wind Speed (kt) <10 10≤X<20 20≤X<30 ≥30
Wind Gust (kt) <15 15≤X<25 25≤X<35 ≥35
Weather No Wx Reported VCTS,-TS,-FZRA TS,FZRA +TS,+FZRA


Page loaded:  07:45 UTC  |   11:45 PM Pacific  |   12:45 AM Mountain  |   01:45 AM Central  |   02:45 AM Eastern

 

ADVISORIES

FORECASTS

FORECASTS

OBSERVATIONS

USER TOOLS

ABOUT US